sensor_id;sensor_type;location;lat;lon;timestamp;pressure;altitude;pressure_sealevel;temperature;humidity
75513;BME280;64090;49.770;18.760;2023-07-24T00:01:13;97112.44;;;21.84;59.21
75513;BME280;64090;49.770;18.760;2023-07-24T00:04:16;97111.89;;;21.84;59.50
75513;BME280;64090;49.770;18.760;2023-07-24T00:07:20;97109.56;;;21.81;59.93
75513;BME280;64090;49.770;18.760;2023-07-24T00:10:23;97110.08;;;21.78;59.81
75513;BME280;64090;49.770;18.760;2023-07-24T00:13:26;97106.52;;;21.78;59.95
75513;BME280;64090;49.770;18.760;2023-07-24T00:16:29;97105.86;;;21.79;60.68
75513;BME280;64090;49.770;18.760;2023-07-24T00:19:34;97101.59;;;21.81;60.93
75513;BME280;64090;49.770;18.760;2023-07-24T00:22:37;97101.19;;;21.84;61.25
75513;BME280;64090;49.770;18.760;2023-07-24T00:25:40;97093.92;;;21.84;61.42
75513;BME280;64090;49.770;18.760;2023-07-24T00:28:43;97095.04;;;21.85;61.64
75513;BME280;64090;49.770;18.760;2023-07-24T00:31:45;97090.46;;;21.84;61.91
75513;BME280;64090;49.770;18.760;2023-07-24T00:34:48;97095.13;;;21.83;61.80
75513;BME280;64090;49.770;18.760;2023-07-24T00:37:51;97091.68;;;21.82;61.86
75513;BME280;64090;49.770;18.760;2023-07-24T00:40:54;97086.90;;;21.80;62.28
75513;BME280;64090;49.770;18.760;2023-07-24T00:43:57;97081.92;;;21.80;62.45
75513;BME280;64090;49.770;18.760;2023-07-24T00:47:00;97084.02;;;21.81;62.70
75513;BME280;64090;49.770;18.760;2023-07-24T00:50:04;97081.09;;;21.81;62.77
75513;BME280;64090;49.770;18.760;2023-07-24T00:53:14;97085.22;;;21.80;63.35
75513;BME280;64090;49.770;18.760;2023-07-24T00:56:21;97085.38;;;21.80;63.14
75513;BME280;64090;49.770;18.760;2023-07-24T00:59:26;97089.00;;;21.80;63.46
75513;BME280;64090;49.770;18.760;2023-07-24T01:02:30;97087.71;;;21.80;63.80
75513;BME280;64090;49.770;18.760;2023-07-24T01:05:35;97084.97;;;21.83;64.07
75513;BME280;64090;49.770;18.760;2023-07-24T01:08:38;97086.98;;;21.85;63.79
75513;BME280;64090;49.770;18.760;2023-07-24T01:11:46;97092.38;;;21.86;63.95
75513;BME280;64090;49.770;18.760;2023-07-24T01:15:18;97091.23;;;21.86;64.27
75513;BME280;64090;49.770;18.760;2023-07-24T01:18:24;97094.73;;;21.84;64.62
75513;BME280;64090;49.770;18.760;2023-07-24T01:21:41;97100.50;;;21.82;64.63
75513;BME280;64090;49.770;18.760;2023-07-24T01:28:11;97099.20;;;21.75;64.69
75513;BME280;64090;49.770;18.760;2023-07-24T01:39:22;97108.84;;;21.63;65.64
75513;BME280;64090;49.770;18.760;2023-07-24T01:42:27;97102.98;;;21.57;66.04
75513;BME280;64090;49.770;18.760;2023-07-24T01:45:30;97102.62;;;21.52;65.96
75513;BME280;64090;49.770;18.760;2023-07-24T01:48:34;97100.66;;;21.49;65.73
75513;BME280;64090;49.770;18.760;2023-07-24T01:51:37;97096.80;;;21.42;66.23
75513;BME280;64090;49.770;18.760;2023-07-24T01:54:40;97100.09;;;21.37;66.23
75513;BME280;64090;49.770;18.760;2023-07-24T01:57:43;97099.95;;;21.30;66.56
75513;BME280;64090;49.770;18.760;2023-07-24T02:00:47;97101.33;;;21.24;66.50
75513;BME280;64090;49.770;18.760;2023-07-24T02:03:51;97100.38;;;21.17;67.01
75513;BME280;64090;49.770;18.760;2023-07-24T02:06:55;97091.33;;;21.11;66.92
75513;BME280;64090;49.770;18.760;2023-07-24T02:09:58;97090.12;;;21.03;67.36
75513;BME280;64090;49.770;18.760;2023-07-24T02:13:01;97094.31;;;20.97;67.54
75513;BME280;64090;49.770;18.760;2023-07-24T02:16:04;97091.28;;;20.92;67.53
75513;BME280;64090;49.770;18.760;2023-07-24T02:19:07;97083.23;;;20.86;67.67
75513;BME280;64090;49.770;18.760;2023-07-24T02:22:10;97079.30;;;20.81;68.01
75513;BME280;64090;49.770;18.760;2023-07-24T02:25:15;97075.52;;;20.75;68.17
75513;BME280;64090;49.770;18.760;2023-07-24T02:28:18;97074.48;;;20.68;69.06
75513;BME280;64090;49.770;18.760;2023-07-24T02:31:21;97068.27;;;20.62;69.13
75513;BME280;64090;49.770;18.760;2023-07-24T02:34:25;97070.09;;;20.59;69.68
75513;BME280;64090;49.770;18.760;2023-07-24T02:37:29;97066.19;;;20.55;69.71
75513;BME280;64090;49.770;18.760;2023-07-24T02:40:32;97068.86;;;20.49;69.94
75513;BME280;64090;49.770;18.760;2023-07-24T02:43:37;97068.69;;;20.44;70.03
75513;BME280;64090;49.770;18.760;2023-07-24T02:46:40;97070.30;;;20.40;70.43
75513;BME280;64090;49.770;18.760;2023-07-24T02:49:43;97073.73;;;20.36;70.75
75513;BME280;64090;49.770;18.760;2023-07-24T02:52:46;97071.63;;;20.31;70.74
75513;BME280;64090;49.770;18.760;2023-07-24T02:55:49;97074.02;;;20.24;70.96
75513;BME280;64090;49.770;18.760;2023-07-24T02:58:52;97075.02;;;20.20;71.23
75513;BME280;64090;49.770;18.760;2023-07-24T03:01:55;97074.41;;;20.17;71.56
75513;BME280;64090;49.770;18.760;2023-07-24T03:04:58;97078.52;;;20.16;71.80
75513;BME280;64090;49.770;18.760;2023-07-24T03:08:01;97076.36;;;20.14;71.88
75513;BME280;64090;49.770;18.760;2023-07-24T03:11:05;97078.75;;;20.12;72.40
75513;BME280;64090;49.770;18.760;2023-07-24T03:14:25;97076.16;;;20.13;72.25
75513;BME280;64090;49.770;18.760;2023-07-24T03:17:28;97081.71;;;20.16;72.40
75513;BME280;64090;49.770;18.760;2023-07-24T03:20:32;97081.34;;;20.20;72.23
75513;BME280;64090;49.770;18.760;2023-07-24T03:23:35;97078.84;;;20.29;72.41
75513;BME280;64090;49.770;18.760;2023-07-24T03:26:38;97077.56;;;20.43;72.51
75513;BME280;64090;49.770;18.760;2023-07-24T03:29:40;97081.42;;;20.53;72.13
75513;BME280;64090;49.770;18.760;2023-07-24T03:32:43;97084.76;;;20.62;72.24
75513;BME280;64090;49.770;18.760;2023-07-24T03:35:46;97088.17;;;20.70;71.92
75513;BME280;64090;49.770;18.760;2023-07-24T03:38:49;97090.33;;;20.86;71.64
75513;BME280;64090;49.770;18.760;2023-07-24T03:41:53;97088.88;;;21.04;71.18
75513;BME280;64090;49.770;18.760;2023-07-24T03:44:56;97084.30;;;21.37;70.63
75513;BME280;64090;49.770;18.760;2023-07-24T03:48:04;97080.73;;;21.87;69.62
75513;BME280;64090;49.770;18.760;2023-07-24T03:51:06;97072.83;;;22.37;68.53
75513;BME280;64090;49.770;18.760;2023-07-24T03:54:12;97067.83;;;22.76;67.54
75513;BME280;64090;49.770;18.760;2023-07-24T03:57:15;97065.24;;;23.12;66.63
75513;BME280;64090;49.770;18.760;2023-07-24T04:00:18;97064.61;;;23.40;65.74
75513;BME280;64090;49.770;18.760;2023-07-24T04:03:21;97069.10;;;23.72;64.95
75513;BME280;64090;49.770;18.760;2023-07-24T04:06:24;97075.14;;;24.07;63.81
75513;BME280;64090;49.770;18.760;2023-07-24T04:09:27;97072.00;;;24.37;63.13
75513;BME280;64090;49.770;18.760;2023-07-24T04:12:30;97067.35;;;24.70;61.86
75513;BME280;64090;49.770;18.760;2023-07-24T04:15:35;97070.27;;;25.00;61.43
75513;BME280;64090;49.770;18.760;2023-07-24T04:18:39;97076.20;;;25.39;60.52
75513;BME280;64090;49.770;18.760;2023-07-24T04:21:42;97079.60;;;25.76;59.37
75513;BME280;64090;49.770;18.760;2023-07-24T04:24:45;97076.09;;;25.89;58.44
75513;BME280;64090;49.770;18.760;2023-07-24T04:27:47;97079.83;;;25.83;59.09
75513;BME280;64090;49.770;18.760;2023-07-24T04:30:50;97079.23;;;25.92;58.56
75513;BME280;64090;49.770;18.760;2023-07-24T04:33:53;97082.64;;;25.79;58.46
75513;BME280;64090;49.770;18.760;2023-07-24T04:36:56;97084.08;;;25.76;58.60
75513;BME280;64090;49.770;18.760;2023-07-24T04:39:59;97089.48;;;25.96;57.84
75513;BME280;64090;49.770;18.760;2023-07-24T04:43:02;97097.46;;;26.31;57.56
75513;BME280;64090;49.770;18.760;2023-07-24T04:46:05;97096.14;;;26.69;56.56
75513;BME280;64090;49.770;18.760;2023-07-24T04:49:08;97096.94;;;27.04;55.77
75513;BME280;64090;49.770;18.760;2023-07-24T04:52:11;97100.39;;;27.07;55.61
75513;BME280;64090;49.770;18.760;2023-07-24T04:55:14;97098.10;;;27.02;55.41
75513;BME280;64090;49.770;18.760;2023-07-24T04:58:17;97101.48;;;26.85;55.63
75513;BME280;64090;49.770;18.760;2023-07-24T05:01:20;97100.81;;;26.47;56.21
75513;BME280;64090;49.770;18.760;2023-07-24T05:04:23;97096.88;;;26.14;56.61
75513;BME280;64090;49.770;18.760;2023-07-24T05:07:26;97095.70;;;25.98;57.22
75513;BME280;64090;49.770;18.760;2023-07-24T05:10:29;97100.00;;;25.97;57.71
75513;BME280;64090;49.770;18.760;2023-07-24T05:13:32;97098.46;;;25.99;57.75
75513;BME280;64090;49.770;18.760;2023-07-24T05:16:35;97099.77;;;26.06;57.75
75513;BME280;64090;49.770;18.760;2023-07-24T05:19:38;97102.16;;;26.18;57.53
75513;BME280;64090;49.770;18.760;2023-07-24T05:22:41;97098.72;;;26.30;57.65
75513;BME280;64090;49.770;18.760;2023-07-24T05:25:44;97090.57;;;26.45;57.30
75513;BME280;64090;49.770;18.760;2023-07-24T05:28:47;97084.95;;;26.55;57.05
75513;BME280;64090;49.770;18.760;2023-07-24T05:31:50;97082.73;;;26.71;56.75
75513;BME280;64090;49.770;18.760;2023-07-24T05:34:53;97084.72;;;26.87;56.52
75513;BME280;64090;49.770;18.760;2023-07-24T05:37:56;97091.33;;;27.02;56.06
75513;BME280;64090;49.770;18.760;2023-07-24T05:41:01;97089.82;;;27.14;55.45
75513;BME280;64090;49.770;18.760;2023-07-24T05:44:04;97084.73;;;27.17;55.53
75513;BME280;64090;49.770;18.760;2023-07-24T05:47:07;97091.59;;;27.24;55.25
75513;BME280;64090;49.770;18.760;2023-07-24T05:50:10;97103.04;;;27.34;55.09
75513;BME280;64090;49.770;18.760;2023-07-24T05:53:16;97103.33;;;27.39;54.83
75513;BME280;64090;49.770;18.760;2023-07-24T05:56:19;97109.02;;;27.43;54.50
75513;BME280;64090;49.770;18.760;2023-07-24T05:59:22;97105.95;;;27.46;54.30
75513;BME280;64090;49.770;18.760;2023-07-24T06:02:25;97107.45;;;27.57;54.37
75513;BME280;64090;49.770;18.760;2023-07-24T06:05:28;97104.80;;;27.73;53.96
75513;BME280;64090;49.770;18.760;2023-07-24T06:08:31;97098.58;;;27.94;53.96
75513;BME280;64090;49.770;18.760;2023-07-24T06:11:34;97101.84;;;28.09;53.45
75513;BME280;64090;49.770;18.760;2023-07-24T06:14:37;97097.63;;;28.33;53.62
75513;BME280;64090;49.770;18.760;2023-07-24T06:17:40;97093.98;;;28.51;53.01
75513;BME280;64090;49.770;18.760;2023-07-24T06:20:43;97090.87;;;28.66;52.31
75513;BME280;64090;49.770;18.760;2023-07-24T06:23:46;97088.20;;;28.77;52.09
75513;BME280;64090;49.770;18.760;2023-07-24T06:26:49;97090.50;;;28.89;52.35
75513;BME280;64090;49.770;18.760;2023-07-24T06:29:57;97088.02;;;28.98;51.62
75513;BME280;64090;49.770;18.760;2023-07-24T06:33:18;97084.23;;;29.00;51.25
75513;BME280;64090;49.770;18.760;2023-07-24T06:36:21;97085.23;;;28.96;50.99
75513;BME280;64090;49.770;18.760;2023-07-24T06:39:24;97081.65;;;28.99;51.63
75513;BME280;64090;49.770;18.760;2023-07-24T06:42:27;97075.30;;;29.08;51.12
75513;BME280;64090;49.770;18.760;2023-07-24T06:45:31;97077.70;;;29.22;51.07
75513;BME280;64090;49.770;18.760;2023-07-24T06:48:34;97078.95;;;29.32;50.84
75513;BME280;64090;49.770;18.760;2023-07-24T06:51:37;97075.23;;;29.46;50.37
75513;BME280;64090;49.770;18.760;2023-07-24T06:54:41;97070.95;;;29.57;49.50
75513;BME280;64090;49.770;18.760;2023-07-24T06:57:44;97070.31;;;29.65;49.70
75513;BME280;64090;49.770;18.760;2023-07-24T07:00:47;97065.75;;;29.74;48.38
75513;BME280;64090;49.770;18.760;2023-07-24T07:03:50;97060.06;;;29.75;48.36
75513;BME280;64090;49.770;18.760;2023-07-24T07:06:53;97062.41;;;29.60;48.10
75513;BME280;64090;49.770;18.760;2023-07-24T07:09:58;97062.95;;;29.54;48.32
75513;BME280;64090;49.770;18.760;2023-07-24T07:13:00;97060.40;;;29.50;48.63
75513;BME280;64090;49.770;18.760;2023-07-24T07:16:04;97056.15;;;29.65;48.05
75513;BME280;64090;49.770;18.760;2023-07-24T07:19:07;97049.13;;;29.81;46.36
75513;BME280;64090;49.770;18.760;2023-07-24T07:22:12;97039.59;;;29.99;45.75
75513;BME280;64090;49.770;18.760;2023-07-24T07:25:15;97038.83;;;30.40;46.52
75513;BME280;64090;49.770;18.760;2023-07-24T07:28:18;97035.64;;;30.81;43.98
75513;BME280;64090;49.770;18.760;2023-07-24T07:31:21;97039.63;;;30.81;44.27
75513;BME280;64090;49.770;18.760;2023-07-24T07:34:26;97040.64;;;30.68;43.90
75513;BME280;64090;49.770;18.760;2023-07-24T07:37:51;97043.48;;;30.54;43.95
75513;BME280;64090;49.770;18.760;2023-07-24T07:40:54;97055.00;;;30.40;44.17
75513;BME280;64090;49.770;18.760;2023-07-24T07:43:57;97053.51;;;30.23;44.23
75513;BME280;64090;49.770;18.760;2023-07-24T07:47:06;97047.83;;;30.14;44.27
75513;BME280;64090;49.770;18.760;2023-07-24T07:50:09;97054.09;;;30.10;44.58
75513;BME280;64090;49.770;18.760;2023-07-24T07:53:13;97042.25;;;30.10;44.80
75513;BME280;64090;49.770;18.760;2023-07-24T07:56:16;97043.23;;;30.12;44.77
75513;BME280;64090;49.770;18.760;2023-07-24T07:59:18;97043.98;;;30.02;44.58
75513;BME280;64090;49.770;18.760;2023-07-24T08:02:21;97045.92;;;30.07;44.67
75513;BME280;64090;49.770;18.760;2023-07-24T08:05:24;97044.85;;;30.24;44.80
75513;BME280;64090;49.770;18.760;2023-07-24T08:08:28;97036.98;;;30.32;44.61
75513;BME280;64090;49.770;18.760;2023-07-24T08:11:33;97030.65;;;30.66;43.95
75513;BME280;64090;49.770;18.760;2023-07-24T08:14:35;97025.42;;;31.24;41.86
75513;BME280;64090;49.770;18.760;2023-07-24T08:17:39;97020.19;;;31.64;40.01
75513;BME280;64090;49.770;18.760;2023-07-24T08:20:42;97018.13;;;31.94;38.04
75513;BME280;64090;49.770;18.760;2023-07-24T08:23:45;97019.48;;;32.10;35.82
75513;BME280;64090;49.770;18.760;2023-07-24T08:26:48;97020.42;;;32.11;34.80
75513;BME280;64090;49.770;18.760;2023-07-24T08:29:52;97020.50;;;31.75;33.51
75513;BME280;64090;49.770;18.760;2023-07-24T08:32:58;97017.00;;;31.89;35.21
75513;BME280;64090;49.770;18.760;2023-07-24T08:36:10;97010.24;;;32.34;34.99
75513;BME280;64090;49.770;18.760;2023-07-24T08:39:16;97007.48;;;32.74;32.67
75513;BME280;64090;49.770;18.760;2023-07-24T08:42:19;97005.76;;;32.95;32.40
75513;BME280;64090;49.770;18.760;2023-07-24T08:45:39;97008.41;;;32.89;33.02
75513;BME280;64090;49.770;18.760;2023-07-24T08:48:42;97004.96;;;32.47;32.72
75513;BME280;64090;49.770;18.760;2023-07-24T08:51:46;97002.20;;;32.15;33.41
75513;BME280;64090;49.770;18.760;2023-07-24T08:54:49;96998.32;;;31.97;34.15
75513;BME280;64090;49.770;18.760;2023-07-24T08:57:52;96990.61;;;31.73;34.08
75513;BME280;64090;49.770;18.760;2023-07-24T09:00:59;96989.15;;;31.48;34.53
75513;BME280;64090;49.770;18.760;2023-07-24T09:04:04;96992.16;;;31.28;35.39
75513;BME280;64090;49.770;18.760;2023-07-24T09:07:12;96993.26;;;31.20;36.05
75513;BME280;64090;49.770;18.760;2023-07-24T09:10:26;96992.13;;;31.23;36.40
75513;BME280;64090;49.770;18.760;2023-07-24T09:13:30;97002.55;;;31.08;36.25
75513;BME280;64090;49.770;18.760;2023-07-24T09:16:33;97004.14;;;30.95;36.74
75513;BME280;64090;49.770;18.760;2023-07-24T09:19:38;96998.37;;;30.71;36.49
75513;BME280;64090;49.770;18.760;2023-07-24T09:23:01;96991.54;;;30.12;35.87
75513;BME280;64090;49.770;18.760;2023-07-24T09:26:18;96986.92;;;29.72;37.14
75513;BME280;64090;49.770;18.760;2023-07-24T09:29:21;96980.33;;;29.39;37.21
75513;BME280;64090;49.770;18.760;2023-07-24T09:32:27;96976.59;;;29.15;38.63
75513;BME280;64090;49.770;18.760;2023-07-24T09:35:31;96978.06;;;29.00;39.36
75513;BME280;64090;49.770;18.760;2023-07-24T09:38:36;96963.48;;;28.77;39.54
75513;BME280;64090;49.770;18.760;2023-07-24T09:41:41;96958.38;;;28.46;39.74
75513;BME280;64090;49.770;18.760;2023-07-24T09:44:44;96955.42;;;28.42;39.86
75513;BME280;64090;49.770;18.760;2023-07-24T09:47:47;96949.69;;;28.63;40.10
75513;BME280;64090;49.770;18.760;2023-07-24T09:50:59;96935.60;;;28.88;40.05
75513;BME280;64090;49.770;18.760;2023-07-24T09:54:22;96929.14;;;29.30;40.44
75513;BME280;64090;49.770;18.760;2023-07-24T09:57:30;96924.83;;;29.66;39.80
75513;BME280;64090;49.770;18.760;2023-07-24T10:00:39;96926.26;;;29.75;39.67
75513;BME280;64090;49.770;18.760;2023-07-24T10:03:51;96919.98;;;29.84;39.20
75513;BME280;64090;49.770;18.760;2023-07-24T10:06:54;96915.89;;;30.04;38.81
75513;BME280;64090;49.770;18.760;2023-07-24T10:10:02;96909.24;;;30.59;38.98
75513;BME280;64090;49.770;18.760;2023-07-24T10:13:06;96905.06;;;31.49;37.57
75513;BME280;64090;49.770;18.760;2023-07-24T10:16:09;96902.80;;;32.22;35.97
75513;BME280;64090;49.770;18.760;2023-07-24T10:19:16;96894.23;;;32.47;35.46
75513;BME280;64090;49.770;18.760;2023-07-24T10:22:20;96892.39;;;32.69;35.50
75513;BME280;64090;49.770;18.760;2023-07-24T10:25:31;96892.38;;;32.91;34.40
75513;BME280;64090;49.770;18.760;2023-07-24T10:28:40;96888.58;;;33.12;33.02
75513;BME280;64090;49.770;18.760;2023-07-24T10:31:53;96890.33;;;33.02;34.84
75513;BME280;64090;49.770;18.760;2023-07-24T10:35:08;96890.58;;;32.80;34.54
75513;BME280;64090;49.770;18.760;2023-07-24T10:38:19;96889.70;;;32.80;35.28
75513;BME280;64090;49.770;18.760;2023-07-24T10:41:36;96885.15;;;33.09;35.79
75513;BME280;64090;49.770;18.760;2023-07-24T10:44:47;96879.06;;;33.59;34.92
75513;BME280;64090;49.770;18.760;2023-07-24T10:47:50;96877.12;;;34.00;34.11
75513;BME280;64090;49.770;18.760;2023-07-24T10:50:56;96876.81;;;34.28;33.63
75513;BME280;64090;49.770;18.760;2023-07-24T10:54:01;96876.95;;;34.47;33.11
75513;BME280;64090;49.770;18.760;2023-07-24T10:57:05;96867.58;;;34.38;32.66
75513;BME280;64090;49.770;18.760;2023-07-24T11:00:08;96859.95;;;34.28;33.46
75513;BME280;64090;49.770;18.760;2023-07-24T11:03:27;96857.80;;;34.15;32.76
75513;BME280;64090;49.770;18.760;2023-07-24T11:06:30;96855.83;;;34.38;33.31
75513;BME280;64090;49.770;18.760;2023-07-24T11:09:34;96851.80;;;34.87;33.14
75513;BME280;64090;49.770;18.760;2023-07-24T11:12:40;96840.52;;;35.18;32.66
75513;BME280;64090;49.770;18.760;2023-07-24T11:15:43;96834.56;;;34.96;32.22
75513;BME280;64090;49.770;18.760;2023-07-24T11:18:55;96833.25;;;34.59;32.76
75513;BME280;64090;49.770;18.760;2023-07-24T11:21:59;96827.18;;;34.16;32.63
75513;BME280;64090;49.770;18.760;2023-07-24T11:25:12;96822.76;;;33.61;33.32
75513;BME280;64090;49.770;18.760;2023-07-24T11:28:39;96825.61;;;33.20;34.44
75513;BME280;64090;49.770;18.760;2023-07-24T11:31:55;96824.58;;;32.93;34.96
75513;BME280;64090;49.770;18.760;2023-07-24T11:35:00;96825.43;;;32.86;35.50
75513;BME280;64090;49.770;18.760;2023-07-24T11:38:19;96817.04;;;32.82;35.74
75513;BME280;64090;49.770;18.760;2023-07-24T11:41:22;96806.25;;;32.68;36.22
75513;BME280;64090;49.770;18.760;2023-07-24T11:44:27;96795.89;;;32.54;36.28
75513;BME280;64090;49.770;18.760;2023-07-24T11:47:30;96781.65;;;32.52;36.82
75513;BME280;64090;49.770;18.760;2023-07-24T11:50:46;96776.58;;;32.44;36.90
75513;BME280;64090;49.770;18.760;2023-07-24T11:53:50;96776.86;;;32.22;37.69
75513;BME280;64090;49.770;18.760;2023-07-24T11:56:53;96775.95;;;31.93;37.79
75513;BME280;64090;49.770;18.760;2023-07-24T11:59:56;96776.05;;;31.71;38.40
75513;BME280;64090;49.770;18.760;2023-07-24T12:03:00;96777.59;;;31.54;38.46
75513;BME280;64090;49.770;18.760;2023-07-24T12:06:04;96766.73;;;31.28;38.66
75513;BME280;64090;49.770;18.760;2023-07-24T12:09:07;96759.15;;;31.25;39.33
75513;BME280;64090;49.770;18.760;2023-07-24T12:12:12;96750.54;;;31.18;39.14
75513;BME280;64090;49.770;18.760;2023-07-24T12:15:19;96746.68;;;31.17;39.12
75513;BME280;64090;49.770;18.760;2023-07-24T12:18:22;96740.34;;;31.14;39.22
75513;BME280;64090;49.770;18.760;2023-07-24T12:21:25;96734.36;;;31.17;38.74
75513;BME280;64090;49.770;18.760;2023-07-24T12:24:29;96729.79;;;31.24;38.34
75513;BME280;64090;49.770;18.760;2023-07-24T12:27:32;96722.49;;;31.38;38.78
75513;BME280;64090;49.770;18.760;2023-07-24T12:30:35;96722.36;;;31.48;39.27
75513;BME280;64090;49.770;18.760;2023-07-24T12:33:38;96715.57;;;31.60;39.24
75513;BME280;64090;49.770;18.760;2023-07-24T12:36:41;96714.52;;;31.63;39.14
75513;BME280;64090;49.770;18.760;2023-07-24T12:39:45;96709.85;;;31.65;38.42
75513;BME280;64090;49.770;18.760;2023-07-24T12:42:59;96696.77;;;31.67;38.22
75513;BME280;64090;49.770;18.760;2023-07-24T12:46:01;96691.34;;;31.67;38.37
75513;BME280;64090;49.770;18.760;2023-07-24T12:49:05;96679.91;;;31.70;38.21
75513;BME280;64090;49.770;18.760;2023-07-24T12:52:08;96667.76;;;31.77;37.91
75513;BME280;64090;49.770;18.760;2023-07-24T12:55:12;96660.94;;;31.77;38.15
75513;BME280;64090;49.770;18.760;2023-07-24T12:58:14;96649.77;;;31.76;38.51
75513;BME280;64090;49.770;18.760;2023-07-24T13:01:17;96636.55;;;31.69;38.30
75513;BME280;64090;49.770;18.760;2023-07-24T13:04:21;96630.05;;;31.52;38.79
75513;BME280;64090;49.770;18.760;2023-07-24T13:07:24;96628.48;;;31.49;39.30
75513;BME280;64090;49.770;18.760;2023-07-24T13:10:27;96626.61;;;31.55;39.61
75513;BME280;64090;49.770;18.760;2023-07-24T13:13:30;96624.71;;;31.59;39.20
75513;BME280;64090;49.770;18.760;2023-07-24T13:16:33;96619.79;;;31.67;38.90
75513;BME280;64090;49.770;18.760;2023-07-24T13:19:36;96618.23;;;31.79;38.85
75513;BME280;64090;49.770;18.760;2023-07-24T13:22:39;96619.22;;;31.71;38.14
75513;BME280;64090;49.770;18.760;2023-07-24T13:25:46;96617.69;;;31.68;37.19
75513;BME280;64090;49.770;18.760;2023-07-24T13:28:49;96608.45;;;31.75;36.76
75513;BME280;64090;49.770;18.760;2023-07-24T13:31:53;96605.50;;;32.08;36.89
75513;BME280;64090;49.770;18.760;2023-07-24T13:34:56;96596.90;;;32.51;36.59
75513;BME280;64090;49.770;18.760;2023-07-24T13:37:59;96595.96;;;32.75;36.47
75513;BME280;64090;49.770;18.760;2023-07-24T13:41:03;96586.23;;;32.87;36.31
75513;BME280;64090;49.770;18.760;2023-07-24T13:44:12;96567.77;;;32.99;36.13
75513;BME280;64090;49.770;18.760;2023-07-24T13:47:15;96562.51;;;32.99;36.56
75513;BME280;64090;49.770;18.760;2023-07-24T13:50:18;96552.39;;;32.94;36.27
75513;BME280;64090;49.770;18.760;2023-07-24T13:53:21;96554.94;;;32.88;35.81
75513;BME280;64090;49.770;18.760;2023-07-24T13:56:24;96547.98;;;33.04;36.58
75513;BME280;64090;49.770;18.760;2023-07-24T13:59:27;96538.98;;;33.17;36.04
75513;BME280;64090;49.770;18.760;2023-07-24T14:02:30;96538.44;;;33.20;35.80
75513;BME280;64090;49.770;18.760;2023-07-24T14:05:35;96535.52;;;33.31;35.67
75513;BME280;64090;49.770;18.760;2023-07-24T14:08:42;96535.02;;;33.40;35.47
75513;BME280;64090;49.770;18.760;2023-07-24T14:11:53;96522.45;;;33.44;35.22
75513;BME280;64090;49.770;18.760;2023-07-24T14:15:04;96519.34;;;33.50;35.22
75513;BME280;64090;49.770;18.760;2023-07-24T14:18:09;96518.75;;;33.55;34.93
75513;BME280;64090;49.770;18.760;2023-07-24T14:21:12;96512.27;;;33.54;34.82
75513;BME280;64090;49.770;18.760;2023-07-24T14:24:15;96506.48;;;33.60;35.20
75513;BME280;64090;49.770;18.760;2023-07-24T14:27:19;96504.50;;;33.73;34.61
75513;BME280;64090;49.770;18.760;2023-07-24T14:30:21;96511.77;;;33.64;34.27
75513;BME280;64090;49.770;18.760;2023-07-24T14:33:24;96512.33;;;33.51;34.72
75513;BME280;64090;49.770;18.760;2023-07-24T14:36:28;96511.05;;;33.58;34.92
75513;BME280;64090;49.770;18.760;2023-07-24T14:39:36;96503.24;;;33.74;34.34
75513;BME280;64090;49.770;18.760;2023-07-24T14:42:39;96498.07;;;33.84;34.08
75513;BME280;64090;49.770;18.760;2023-07-24T14:45:43;96486.81;;;33.87;34.76
75513;BME280;64090;49.770;18.760;2023-07-24T14:48:47;96480.79;;;34.03;34.10
75513;BME280;64090;49.770;18.760;2023-07-24T14:51:50;96470.64;;;34.05;34.28
75513;BME280;64090;49.770;18.760;2023-07-24T14:54:55;96456.23;;;33.89;34.41
75513;BME280;64090;49.770;18.760;2023-07-24T14:57:58;96445.19;;;33.58;34.42
75513;BME280;64090;49.770;18.760;2023-07-24T15:01:01;96430.43;;;33.37;35.10
75513;BME280;64090;49.770;18.760;2023-07-24T15:04:04;96415.15;;;33.35;35.57
75513;BME280;64090;49.770;18.760;2023-07-24T15:07:08;96404.77;;;33.36;35.74
75513;BME280;64090;49.770;18.760;2023-07-24T15:10:11;96401.76;;;33.34;35.86
75513;BME280;64090;49.770;18.760;2023-07-24T15:13:14;96399.14;;;33.27;35.92
75513;BME280;64090;49.770;18.760;2023-07-24T15:16:17;96404.55;;;33.07;36.22
75513;BME280;64090;49.770;18.760;2023-07-24T15:19:20;96408.49;;;32.85;35.82
75513;BME280;64090;49.770;18.760;2023-07-24T15:22:23;96406.06;;;32.53;35.90
75513;BME280;64090;49.770;18.760;2023-07-24T15:25:28;96407.86;;;32.24;36.25
75513;BME280;64090;49.770;18.760;2023-07-24T15:28:35;96411.80;;;32.00;36.38
75513;BME280;64090;49.770;18.760;2023-07-24T15:31:39;96415.45;;;31.67;36.54
75513;BME280;64090;49.770;18.760;2023-07-24T15:34:46;96414.20;;;31.28;36.75
75513;BME280;64090;49.770;18.760;2023-07-24T15:37:49;96414.02;;;30.92;37.32
75513;BME280;64090;49.770;18.760;2023-07-24T15:40:53;96414.40;;;30.60;37.95
75513;BME280;64090;49.770;18.760;2023-07-24T15:43:55;96424.08;;;30.24;38.55
75513;BME280;64090;49.770;18.760;2023-07-24T15:46:58;96440.48;;;30.00;38.66
75513;BME280;64090;49.770;18.760;2023-07-24T15:50:02;96442.01;;;29.85;38.45
75513;BME280;64090;49.770;18.760;2023-07-24T15:53:09;96449.53;;;29.35;39.12
75513;BME280;64090;49.770;18.760;2023-07-24T15:56:14;96470.05;;;28.48;40.26
75513;BME280;64090;49.770;18.760;2023-07-24T15:59:17;96478.67;;;27.81;41.82
75513;BME280;64090;49.770;18.760;2023-07-24T16:02:22;96475.89;;;27.20;43.50
75513;BME280;64090;49.770;18.760;2023-07-24T16:05:25;96480.73;;;26.69;44.64
75513;BME280;64090;49.770;18.760;2023-07-24T16:08:28;96490.00;;;26.27;45.96
75513;BME280;64090;49.770;18.760;2023-07-24T16:11:31;96511.90;;;25.88;46.98
75513;BME280;64090;49.770;18.760;2023-07-24T16:14:35;96522.93;;;25.54;48.00
75513;BME280;64090;49.770;18.760;2023-07-24T16:17:39;96538.34;;;24.95;51.47